Time;durP1;ratioP1;P1;durP2;ratioP2;P2;SDS_P1;SDS_P2;PMS_P1;PMS_P2;Temp;Humidity;BMP_temperature;BMP_pressure;BME280_temperature;BME280_humidity;BME280_pressure;Samples;Min_cycle;Max_cycle;Signal;HPM_P1;HPM_P2
2022/08/14 00:02:06;;;;;;;8.27;7.87;;;;;;;25.85;62.94;98763.38;4918684;29;20198;-65
2022/08/14 00:04:35;;;;;;;8.13;7.53;;;;;;;25.75;62.70;98750.03;4919218;29;20208;-65
2022/08/14 00:07:02;;;;;;;8.77;8.13;;;;;;;25.65;63.82;98748.41;4918242;29;20220;-65
2022/08/14 00:09:29;;;;;;;9.30;8.27;;;;;;;25.71;63.71;98746.31;4919140;29;20300;-65
2022/08/14 00:11:55;;;;;;;8.37;7.87;;;;;;;25.73;63.75;98733.22;4918505;29;20201;-65
2022/08/14 00:14:22;;;;;;;8.00;7.50;;;;;;;25.78;63.72;98736.63;4918577;29;20253;-65
2022/08/14 00:16:51;;;;;;;7.93;7.10;;;;;;;25.88;63.17;98730.09;4918121;29;20198;-65
2022/08/14 00:19:19;;;;;;;7.93;7.43;;;;;;;25.92;62.53;98734.59;4917993;29;20227;-65
2022/08/14 00:21:46;;;;;;;8.23;7.80;;;;;;;25.84;62.55;98729.13;4918384;29;20193;-65
2022/08/14 00:24:12;;;;;;;7.80;7.30;;;;;;;25.77;62.59;98731.47;4918647;29;20261;-65
2022/08/14 00:26:39;;;;;;;8.00;7.50;;;;;;;25.66;63.45;98720.06;4917467;29;20554;-64
2022/08/14 00:29:06;;;;;;;7.73;7.13;;;;;;;25.68;62.71;98726.00;4918211;29;20205;-64
2022/08/14 00:31:33;;;;;;;8.00;7.40;;;;;;;25.53;63.16;98722.88;4918137;29;20200;-65
2022/08/14 00:33:59;;;;;;;7.77;7.37;;;;;;;25.41;63.95;98725.34;4918177;29;20194;-65
2022/08/14 00:36:28;;;;;;;8.10;7.30;;;;;;;25.30;64.04;98721.28;4918033;29;20355;-65
2022/08/14 00:38:55;;;;;;;7.27;6.87;;;;;;;25.26;64.56;98717.53;4917998;29;20232;-65
2022/08/14 00:41:21;;;;;;;8.13;7.63;;;;;;;25.09;65.11;98710.09;4917983;29;20236;-64
2022/08/14 00:43:48;;;;;;;8.37;7.87;;;;;;;25.07;65.18;98714.22;4917742;29;20197;-65
2022/08/14 00:46:15;;;;;;;7.80;7.20;;;;;;;25.06;65.20;98712.63;4918167;29;20260;-65
2022/08/14 00:48:41;;;;;;;8.53;7.17;;;;;;;25.03;65.35;98714.84;4918702;29;20219;-65
2022/08/14 00:51:10;;;;;;;7.23;6.83;;;;;;;25.06;64.97;98712.63;4917522;29;20264;-65
2022/08/14 00:53:39;;;;;;;7.73;7.33;;;;;;;25.01;65.73;98718.97;4917574;29;20201;-65
2022/08/14 00:56:07;;;;;;;8.23;7.43;;;;;;;25.02;65.34;98712.44;4916790;29;20236;-65
2022/08/14 00:58:34;;;;;;;8.20;7.67;;;;;;;24.94;65.23;98710.44;4917354;29;20229;-64
2022/08/14 01:01:04;;;;;;;8.03;7.63;;;;;;;24.80;65.97;98707.78;4917347;29;20741;-64
2022/08/14 01:03:33;;;;;;;8.07;7.47;;;;;;;24.80;66.08;98713.19;4917812;29;20201;-65
2022/08/14 01:06:00;;;;;;;8.37;7.60;;;;;;;24.77;66.34;98705.69;4917310;29;20194;-64
2022/08/14 01:08:29;;;;;;;7.87;7.47;;;;;;;24.56;66.46;98682.78;4917703;29;20303;-65
2022/08/14 01:10:58;;;;;;;8.17;7.67;;;;;;;24.72;66.61;98707.72;4917130;29;20200;-65
2022/08/14 01:13:26;;;;;;;8.13;7.73;;;;;;;24.78;66.75;98698.31;4917790;29;20209;-65
2022/08/14 01:15:56;;;;;;;8.40;7.70;;;;;;;24.88;67.08;98701.59;4917033;29;20263;-64
2022/08/14 01:21:13;;;;;;;12.77;7.57;;;;;;;25.18;66.07;98686.47;4917488;29;20237;-65
2022/08/14 01:23:44;;;;;;;7.73;7.03;;;;;;;25.42;64.80;98694.31;4917869;29;20201;-65
2022/08/14 01:26:11;;;;;;;8.40;7.80;;;;;;;25.55;64.23;98696.19;4916899;29;20631;-65
2022/08/14 01:28:39;;;;;;;8.57;7.93;;;;;;;25.64;63.18;98699.75;4917237;29;20200;-65
2022/08/14 01:31:09;;;;;;;8.13;7.63;;;;;;;25.66;63.62;98689.34;4917081;29;20268;-66
2022/08/14 01:33:39;;;;;;;8.43;7.73;;;;;;;25.69;63.45;98699.59;4917680;29;20261;-66
2022/08/14 01:36:08;;;;;;;8.00;7.60;;;;;;;25.81;62.75;98707.97;4917359;29;20714;-65
2022/08/14 01:38:35;;;;;;;7.97;7.57;;;;;;;25.91;62.44;98702.25;4915796;29;20701;-64
2022/08/14 01:41:06;;;;;;;8.27;7.77;;;;;;;25.90;62.28;98706.09;4916156;29;20256;-65
2022/08/14 01:43:38;;;;;;;7.83;7.43;;;;;;;25.87;62.53;98701.25;4916407;29;20241;-65
2022/08/14 01:46:08;;;;;;;8.00;7.57;;;;;;;25.76;62.32;98687.13;4916612;29;20213;-65
2022/08/14 01:48:35;;;;;;;8.23;7.73;;;;;;;25.91;62.40;98702.25;4915504;29;20226;-65
2022/08/14 01:51:01;;;;;;;9.30;8.57;;;;;;;25.96;62.36;98702.16;4916467;29;20198;-65
2022/08/14 01:53:30;;;;;;;8.03;7.63;;;;;;;26.00;62.04;98706.63;4916477;29;20279;-65
2022/08/14 01:55:58;;;;;;;9.50;9.00;;;;;;;26.05;61.40;98702.97;4916308;29;20662;-66
2022/08/14 01:58:28;;;;;;;8.40;7.83;;;;;;;26.01;61.69;98712.91;4915964;29;20670;-66
2022/08/14 02:00:55;;;;;;;7.97;7.47;;;;;;;26.02;62.67;98714.50;4916574;29;20224;-66
2022/08/14 02:03:23;;;;;;;8.20;7.70;;;;;;;26.10;62.31;98711.81;4916377;29;20228;-65
2022/08/14 02:05:50;;;;;;;9.30;8.70;;;;;;;26.19;62.07;98701.75;4916467;29;20287;-66
2022/08/14 02:08:16;;;;;;;8.60;8.10;;;;;;;26.35;61.64;98700.19;4915874;29;20233;-66
2022/08/14 02:10:44;;;;;;;8.60;8.20;;;;;;;26.43;60.74;98698.59;4915906;29;20662;-65
2022/08/14 02:13:10;;;;;;;8.80;7.97;;;;;;;26.51;61.13;98690.44;4915986;29;20609;-65
2022/08/14 02:15:39;;;;;;;8.60;8.20;;;;;;;26.58;60.79;98690.00;4916100;29;20264;-65
2022/08/14 02:18:07;;;;;;;9.33;8.83;;;;;;;26.66;59.62;98695.44;4915819;29;20704;-66
2022/08/14 02:20:34;;;;;;;9.20;8.37;;;;;;;26.73;60.12;98694.94;4916249;29;20225;-65
2022/08/14 02:23:01;;;;;;;9.17;8.50;;;;;;;26.82;59.60;98702.00;4916151;29;20197;-65
2022/08/14 02:25:28;;;;;;;9.00;8.37;;;;;;;26.75;60.34;98687.28;4915534;29;20670;-65
2022/08/14 02:27:55;;;;;;;9.20;8.40;;;;;;;26.78;59.38;98687.41;4915154;29;20284;-65
2022/08/14 02:30:23;;;;;;;8.83;8.33;;;;;;;26.78;59.21;98694.81;4915647;29;20204;-65
2022/08/14 02:32:51;;;;;;;9.73;8.90;;;;;;;26.76;59.50;98697.03;4915403;29;20204;-65
2022/08/14 02:35:19;;;;;;;9.03;8.43;;;;;;;26.74;59.71;98691.13;4915382;29;20260;-64
2022/08/14 02:37:46;;;;;;;10.17;9.47;;;;;;;26.75;59.60;98695.44;4915878;29;20205;-65
2022/08/14 02:40:14;;;;;;;10.00;9.40;;;;;;;26.75;59.85;98687.28;4915473;29;20288;-65
2022/08/14 02:42:41;;;;;;;9.53;8.93;;;;;;;26.70;59.55;98687.44;4915529;29;20228;-65
2022/08/14 02:45:08;;;;;;;8.93;8.53;;;;;;;26.48;59.42;98692.97;4915422;29;20201;-65
2022/08/14 02:47:36;;;;;;;10.67;9.97;;;;;;;26.23;59.67;98678.22;4915787;29;20205;-65
2022/08/14 02:50:05;;;;;;;9.77;9.07;;;;;;;26.01;61.21;98681.00;4915712;29;20693;-65
2022/08/14 02:52:32;;;;;;;10.20;9.43;;;;;;;25.87;62.41;98676.78;4915756;29;20201;-65
2022/08/14 02:54:59;;;;;;;9.67;9.17;;;;;;;25.83;63.03;98662.19;4915786;29;20201;-65
2022/08/14 02:57:27;;;;;;;10.27;9.67;;;;;;;25.74;62.34;98664.09;4915836;29;20193;-65
2022/08/14 02:59:54;;;;;;;10.37;9.67;;;;;;;25.67;62.13;98669.97;4915472;29;20630;-65
2022/08/14 03:02:21;;;;;;;10.20;9.37;;;;;;;25.63;62.09;98668.22;4915686;29;20239;-65
2022/08/14 03:04:48;;;;;;;10.57;9.70;;;;;;;25.57;62.41;98674.91;4915694;29;20256;-64
2022/08/14 03:07:17;;;;;;;11.17;10.40;;;;;;;25.42;63.62;98672.56;4915349;29;20205;-64
2022/08/14 03:09:44;;;;;;;10.53;9.63;;;;;;;25.38;63.59;98660.72;4916018;29;20236;-64
2022/08/14 03:12:11;;;;;;;9.60;9.03;;;;;;;25.39;64.05;98673.22;4915375;29;20284;-64
2022/08/14 03:14:39;;;;;;;10.77;10.07;;;;;;;25.32;64.42;98665.50;4915424;29;20196;-64
2022/08/14 03:17:09;;;;;;;11.30;10.60;;;;;;;25.13;65.77;98655.91;4915662;29;20281;-64
2022/08/14 03:19:36;;;;;;;10.93;10.33;;;;;;;25.00;66.27;98654.88;4917239;29;20732;-65
2022/08/14 03:22:03;;;;;;;10.87;10.07;;;;;;;24.87;66.69;98656.53;4919388;29;20261;-64
2022/08/14 03:24:31;;;;;;;10.17;9.47;;;;;;;24.80;67.23;98653.44;4919238;29;20200;-64
2022/08/14 03:26:58;;;;;;;10.10;9.50;;;;;;;24.62;68.25;98654.41;4919694;29;20261;-64
2022/08/14 03:29:27;;;;;;;10.57;9.70;;;;;;;24.29;69.41;98650.25;4919021;29;20208;-64
2022/08/14 03:31:54;;;;;;;10.13;9.27;;;;;;;24.34;70.35;98658.28;4919294;29;20201;-64
2022/08/14 03:34:22;;;;;;;10.43;9.43;;;;;;;24.54;69.39;98652.41;4919014;29;20537;-63
2022/08/14 03:36:54;;;;;;;9.63;9.03;;;;;;;24.67;69.09;98657.00;4919063;29;20203;-64
2022/08/14 03:39:21;;;;;;;10.73;9.93;;;;;;;24.73;68.06;98653.09;4919133;29;20216;-65
2022/08/14 03:41:52;;;;;;;10.37;9.47;;;;;;;24.77;67.68;98659.50;4918990;29;20287;-64
2022/08/14 03:44:19;;;;;;;9.97;9.37;;;;;;;24.78;68.24;98663.81;4919111;29;20256;-65
2022/08/14 03:46:46;;;;;;;9.10;8.60;;;;;;;24.83;68.29;98660.19;4918682;29;20657;-65
2022/08/14 03:49:15;;;;;;;10.90;10.00;;;;;;;24.94;67.83;98661.53;4918605;29;20204;-65
2022/08/14 03:51:42;;;;;;;9.77;8.87;;;;;;;25.15;67.39;98672.72;4918643;29;20205;-64
2022/08/14 03:54:11;;;;;;;10.27;9.43;;;;;;;25.33;65.99;98675.25;4918198;29;20704;-64
2022/08/14 03:56:43;;;;;;;9.40;8.63;;;;;;;25.53;65.92;98671.19;4918544;29;20208;-63
2022/08/14 03:59:12;;;;;;;8.93;8.33;;;;;;;25.86;64.26;98678.72;4918737;29;20222;-64
2022/08/14 04:01:40;;;;;;;9.23;8.73;;;;;;;26.05;63.52;98670.31;4918536;29;20197;-64
2022/08/14 04:04:08;;;;;;;8.60;8.10;;;;;;;26.30;62.77;98688.63;4917814;29;20257;-63
2022/08/14 04:06:36;;;;;;;9.67;8.97;;;;;;;26.58;62.16;98692.72;4918496;29;20280;-64
2022/08/14 04:09:03;;;;;;;8.67;8.17;;;;;;;26.79;60.97;98704.59;4918495;29;20234;-64
2022/08/14 04:11:30;;;;;;;11.03;10.33;;;;;;;26.86;60.95;98704.91;4918206;29;20205;-64
2022/08/14 04:13:56;;;;;;;9.87;9.20;;;;;;;26.84;61.05;98698.97;4917525;29;20245;-63
2022/08/14 04:16:24;;;;;;;11.23;10.37;;;;;;;26.83;60.89;98708.28;4918492;29;20205;-64
2022/08/14 04:18:53;;;;;;;10.87;10.07;;;;;;;26.73;61.33;98698.50;4917902;29;20269;-64
2022/08/14 04:21:23;;;;;;;10.77;9.97;;;;;;;26.51;62.14;98689.63;4917876;29;20205;-63
2022/08/14 04:23:51;;;;;;;10.57;9.97;;;;;;;26.54;62.76;98699.88;4917998;29;20205;-64
2022/08/14 04:26:20;;;;;;;10.60;9.67;;;;;;;26.53;62.87;98709.16;4917250;29;20680;-64
2022/08/14 04:28:49;;;;;;;10.70;9.87;;;;;;;26.50;62.92;98710.59;4917826;29;20261;-64
2022/08/14 04:31:17;;;;;;;11.30;10.20;;;;;;;26.60;62.51;98714.97;4917537;29;20205;-64
2022/08/14 04:33:47;;;;;;;11.27;10.53;;;;;;;26.69;62.19;98713.06;4917665;29;20198;-63
2022/08/14 04:36:14;;;;;;;10.03;9.40;;;;;;;26.69;63.20;98711.16;4916896;29;20202;-64
2022/08/14 04:44:09;;;;;;;12.13;11.00;;;;;;;26.85;62.09;98706.00;4917283;29;20232;-64
2022/08/14 04:46:36;;;;;;;12.17;11.20;;;;;;;26.77;62.44;98715.00;4917465;29;20212;-64
2022/08/14 04:49:04;;;;;;;11.30;10.30;;;;;;;26.64;62.90;98713.22;4916862;29;20262;-64
2022/08/14 04:51:31;;;;;;;12.10;11.17;;;;;;;26.43;63.40;98704.03;4916866;29;20620;-64
2022/08/14 04:53:59;;;;;;;11.27;10.30;;;;;;;26.13;64.49;98700.25;4917093;29;20660;-64
2022/08/14 04:56:27;;;;;;;10.87;9.90;;;;;;;25.81;66.26;98697.91;4917043;29;20201;-64
2022/08/14 04:58:58;;;;;;;11.40;10.53;;;;;;;25.87;66.08;98695.81;4917140;29;20194;-64
2022/08/14 05:01:26;;;;;;;10.67;10.00;;;;;;;25.66;66.08;98689.34;4917529;29;20217;-64
2022/08/14 05:03:54;;;;;;;10.80;10.00;;;;;;;25.41;67.18;98687.28;4916181;29;20201;-64
2022/08/14 05:06:23;;;;;;;11.90;10.87;;;;;;;25.46;67.25;98696.13;4916760;29;20282;-64
2022/08/14 05:08:50;;;;;;;10.73;10.00;;;;;;;25.66;66.63;98695.59;4916866;29;20244;-65
2022/08/14 05:11:18;;;;;;;11.20;10.30;;;;;;;25.86;65.86;98688.78;4916817;29;20280;-65
2022/08/14 05:13:45;;;;;;;11.03;10.37;;;;;;;26.12;65.08;98693.22;4916475;29;20197;-65
2022/08/14 05:16:12;;;;;;;11.03;10.17;;;;;;;26.71;62.89;98691.75;4916514;29;20260;-66
2022/08/14 05:18:40;;;;;;;10.43;9.47;;;;;;;27.55;60.46;98687.31;4915813;29;20194;-65
2022/08/14 05:21:09;;;;;;;10.27;9.57;;;;;;;28.29;57.17;98699.38;4916255;29;20589;-65
2022/08/14 05:23:38;;;;;;;9.63;8.93;;;;;;;28.90;55.37;98695.94;4916117;29;20245;-64
2022/08/14 05:26:11;;;;;;;10.20;9.60;;;;;;;29.51;52.84;98699.72;4916634;29;20193;-65
2022/08/14 05:28:43;;;;;;;11.03;10.03;;;;;;;29.99;51.29;98702.56;4916830;29;20190;-64
2022/08/14 05:31:11;;;;;;;10.07;9.37;;;;;;;30.16;50.90;98697.69;4916905;29;20185;-66
2022/08/14 05:33:38;;;;;;;11.03;10.03;;;;;;;30.44;50.00;98697.78;4916637;29;20201;-65
2022/08/14 05:36:08;;;;;;;11.27;10.40;;;;;;;30.33;50.04;98700.19;4916608;29;20201;-66
2022/08/14 05:38:38;;;;;;;10.47;9.60;;;;;;;29.88;51.79;98696.72;4915828;29;20201;-64
2022/08/14 05:41:07;;;;;;;11.57;10.67;;;;;;;29.20;54.05;98701.00;4915203;29;20224;-59
2022/08/14 05:43:34;;;;;;;10.00;9.40;;;;;;;28.70;55.20;98702.19;4902573;29;20206;-58
2022/08/14 05:46:01;;;;;;;11.40;10.40;;;;;;;28.33;56.86;98703.06;4897603;29;20200;-57
2022/08/14 05:48:29;;;;;;;10.10;9.17;;;;;;;28.37;57.02;98701.28;4897798;29;20204;-58
2022/08/14 05:50:56;;;;;;;11.50;10.33;;;;;;;28.14;58.03;98689.84;4897735;29;20210;-58
2022/08/14 05:53:24;;;;;;;10.77;10.07;;;;;;;28.21;58.17;98695.59;4897781;29;20263;-58
2022/08/14 05:55:54;;;;;;;11.47;10.57;;;;;;;27.86;59.41;98687.91;4897222;29;20206;-58
2022/08/14 05:58:22;;;;;;;12.53;11.17;;;;;;;27.56;60.81;98688.94;4897564;29;20209;-58
2022/08/14 06:00:49;;;;;;;12.20;11.30;;;;;;;27.45;61.60;98695.88;4897532;29;20223;-58
2022/08/14 06:03:19;;;;;;;11.00;10.10;;;;;;;27.61;60.78;98688.78;4897427;29;20202;-58
2022/08/14 06:05:46;;;;;;;12.00;10.83;;;;;;;27.66;60.12;98688.59;4897595;29;20194;-57
2022/08/14 06:08:16;;;;;;;10.60;9.60;;;;;;;27.73;60.10;98691.63;4897382;29;20245;-58
2022/08/14 06:10:43;;;;;;;14.13;12.77;;;;;;;27.64;60.61;98696.31;4897473;29;20292;-58
2022/08/14 06:13:11;;;;;;;10.17;9.47;;;;;;;27.70;60.21;98697.72;4894422;29;20206;-58
2022/08/14 06:15:38;;;;;;;11.87;10.87;;;;;;;27.97;59.85;98708.25;4897290;29;20198;-58
2022/08/14 06:18:05;;;;;;;12.33;10.30;;;;;;;28.05;59.73;98701.94;4897167;29;20263;-58
2022/08/14 06:20:31;;;;;;;12.37;11.33;;;;;;;27.88;60.25;98702.81;4897013;29;20233;-58
2022/08/14 06:22:59;;;;;;;11.63;10.43;;;;;;;27.97;59.89;98700.06;4909775;29;20197;-58
2022/08/14 06:25:26;;;;;;;11.50;10.30;;;;;;;27.93;60.60;98704.56;4914945;29;20292;-58
2022/08/14 06:27:53;;;;;;;10.97;10.10;;;;;;;27.86;60.45;98704.28;4915690;29;20256;-58
2022/08/14 06:30:24;;;;;;;12.13;10.93;;;;;;;27.76;60.55;98699.16;4915767;29;20201;-67
2022/08/14 06:32:51;;;;;;;12.43;11.33;;;;;;;27.73;60.99;98699.81;4915703;29;20186;-67
2022/08/14 06:35:19;;;;;;;12.10;11.23;;;;;;;27.46;61.70;98705.66;4914571;29;20253;-67
2022/08/14 06:37:48;;;;;;;10.43;9.70;;;;;;;27.05;63.17;98710.81;4915735;29;20641;-67
2022/08/14 06:40:17;;;;;;;12.17;10.97;;;;;;;27.09;62.31;98706.31;4915050;29;20278;-67
2022/08/14 06:42:44;;;;;;;11.27;10.10;;;;;;;27.09;63.20;98709.06;4915816;29;20257;-67
2022/08/14 06:45:12;;;;;;;10.67;9.73;;;;;;;27.08;63.00;98702.00;4915680;29;20702;-67
2022/08/14 06:47:42;;;;;;;12.13;10.77;;;;;;;27.16;61.54;98712.88;4916018;29;20260;-67
2022/08/14 06:50:11;;;;;;;11.53;10.37;;;;;;;26.97;62.10;98709.72;4916014;29;20276;-66
2022/08/14 06:52:39;;;;;;;11.57;10.67;;;;;;;26.68;63.28;98701.38;4916504;29;20272;-66
2022/08/14 06:55:08;;;;;;;11.83;10.73;;;;;;;26.92;62.60;98700.88;4918477;29;20193;-65
2022/08/14 06:57:37;;;;;;;11.33;10.30;;;;;;;26.71;62.65;98694.47;4913599;29;20198;-66
2022/08/14 07:00:07;;;;;;;10.87;10.07;;;;;;;26.78;62.31;98694.81;4899873;29;20230;-68
2022/08/14 07:08:04;;;;;;;10.63;9.70;;;;;;;26.85;63.58;98700.56;4900394;29;20243;-67
2022/08/14 07:10:32;;;;;;;11.43;10.37;;;;;;;27.09;60.74;98692.69;4899864;29;20221;-67
2022/08/14 07:12:59;;;;;;;19.83;10.03;;;;;;;27.37;61.61;98715.78;4900295;29;20222;-67
2022/08/14 07:15:25;;;;;;;10.97;10.27;;;;;;;27.76;60.24;98716.31;4900158;29;20240;-67
2022/08/14 07:17:52;;;;;;;11.00;10.10;;;;;;;27.94;59.09;98719.81;4900155;29;20201;-67
2022/08/14 07:20:21;;;;;;;10.57;9.77;;;;;;;27.95;58.62;98719.50;4899750;29;20265;-67
2022/08/14 07:22:48;;;;;;;10.90;10.13;;;;;;;27.48;59.26;98723.31;4900413;29;20198;-66
2022/08/14 07:25:15;;;;;;;11.23;10.40;;;;;;;27.33;60.24;98718.38;4900128;29;20682;-66
2022/08/14 07:27:42;;;;;;;10.90;10.00;;;;;;;26.95;60.00;98714.66;4901169;29;20258;-66
2022/08/14 07:30:11;;;;;;;10.20;9.57;;;;;;;26.42;60.25;98730.44;4900139;29;20210;-66
2022/08/14 07:32:37;;;;;;;10.60;9.90;;;;;;;25.79;61.89;98726.53;4900108;29;20750;-67
2022/08/14 07:35:05;;;;;;;11.00;10.30;;;;;;;25.66;63.40;98716.53;4899346;29;20202;-67
2022/08/14 07:37:33;;;;;;;11.17;10.00;;;;;;;25.22;65.03;98722.00;4900394;29;20262;-66
2022/08/14 07:40:00;;;;;;;18.80;10.50;;;;;;;25.18;65.23;98721.03;4912829;29;20256;-67
2022/08/14 07:42:27;;;;;;;12.13;10.53;;;;;;;24.92;68.53;98721.63;4919497;29;20339;-66
2022/08/14 07:44:54;;;;;;;11.40;10.40;;;;;;;24.93;70.54;98723.25;4917824;29;20861;-66
2022/08/14 07:47:21;;;;;;;11.40;10.30;;;;;;;24.67;71.62;98727.63;4918915;29;20204;-66
2022/08/14 07:49:58;;;;;;;13.07;11.10;;;;;;;24.67;71.97;98722.19;4918653;29;20736;-67
2022/08/14 07:52:25;;;;;;;14.60;11.47;;;;;;;24.77;72.63;98732.03;4919142;29;20200;-66
2022/08/14 07:54:54;;;;;;;13.60;11.93;;;;;;;24.75;73.24;98729.63;4919153;29;20207;-66
2022/08/14 07:57:21;;;;;;;14.37;11.43;;;;;;;24.71;74.70;98734.06;4918530;29;20239;-67
2022/08/14 07:59:48;;;;;;;22.30;13.07;;;;;;;24.60;77.06;98727.28;4918519;29;20284;-67
2022/08/14 08:02:16;;;;;;;14.17;11.03;;;;;;;24.65;75.77;98719.00;4918641;29;20304;-66
2022/08/14 08:04:45;;;;;;;11.60;10.47;;;;;;;24.98;75.12;98721.53;4918310;29;20200;-66
2022/08/14 08:07:12;;;;;;;11.57;10.03;;;;;;;25.52;70.88;98713.91;4918626;29;20291;-66
2022/08/14 08:09:44;;;;;;;11.47;10.17;;;;;;;25.96;70.30;98721.22;4919154;29;20682;-66
2022/08/14 08:12:14;;;;;;;11.57;10.67;;;;;;;26.29;70.69;98725.94;4918212;29;20198;-66
2022/08/14 08:14:42;;;;;;;11.67;10.63;;;;;;;26.17;71.29;98731.19;4918278;29;20278;-67
2022/08/14 08:17:09;;;;;;;11.77;10.77;;;;;;;25.78;72.44;98731.19;4918662;29;20225;-67
2022/08/14 08:19:38;;;;;;;11.70;10.83;;;;;;;25.06;75.70;98731.66;4918113;29;20208;-68
2022/08/14 08:22:05;;;;;;;11.30;10.63;;;;;;;25.00;75.90;98730.97;4918261;29;20314;-66
2022/08/14 08:24:32;;;;;;;12.00;10.80;;;;;;;25.08;75.85;98732.13;4918276;29;20573;-66
2022/08/14 08:27:01;;;;;;;12.97;11.77;;;;;;;24.73;77.01;98734.56;4917911;29;20290;-67
2022/08/14 08:29:29;;;;;;;11.27;10.33;;;;;;;24.82;78.21;98727.28;4917859;29;20664;-67
2022/08/14 08:31:58;;;;;;;13.33;11.73;;;;;;;24.98;77.49;98726.94;4918154;29;20268;-66
2022/08/14 08:34:25;;;;;;;10.87;9.97;;;;;;;25.49;73.61;98727.31;4918062;29;20233;-66
2022/08/14 08:36:51;;;;;;;11.27;10.40;;;;;;;25.72;72.38;98726.97;4918063;29;20201;-68
2022/08/14 08:39:18;;;;;;;10.10;9.40;;;;;;;26.25;69.96;98719.53;4917497;29;20677;-67
2022/08/14 08:41:47;;;;;;;12.13;11.10;;;;;;;26.65;70.32;98723.00;4917862;29;20228;-67
2022/08/14 08:44:14;;;;;;;10.53;9.77;;;;;;;26.72;68.41;98728.78;4918170;29;20201;-65
2022/08/14 08:46:44;;;;;;;9.43;8.73;;;;;;;26.95;67.56;98736.47;4918156;29;20205;-66
2022/08/14 08:49:10;;;;;;;9.27;8.67;;;;;;;27.06;67.64;98737.78;4918199;29;20205;-66
2022/08/14 08:51:38;;;;;;;11.17;10.33;;;;;;;27.13;67.86;98740.00;4917502;29;20637;-66
2022/08/14 08:54:06;;;;;;;12.73;11.50;;;;;;;27.09;69.64;98733.59;4918676;29;20288;-66
2022/08/14 08:56:35;;;;;;;13.50;12.07;;;;;;;27.12;68.99;98738.41;4917394;29;20194;-66
2022/08/14 08:59:02;;;;;;;10.33;9.43;;;;;;;27.18;67.69;98739.84;4917491;29;20194;-66
2022/08/14 09:01:30;;;;;;;10.33;9.67;;;;;;;27.28;66.67;98736.84;4917773;29;20265;-66
2022/08/14 09:04:04;;;;;;;10.57;9.77;;;;;;;27.48;65.59;98736.16;4917387;29;20683;-66
2022/08/14 09:06:30;;;;;;;10.17;9.50;;;;;;;27.55;65.92;98737.25;4916903;29;20249;-66
2022/08/14 09:08:57;;;;;;;11.17;10.27;;;;;;;27.69;65.34;98739.78;4917907;29;20609;-65
2022/08/14 09:11:24;;;;;;;10.70;9.90;;;;;;;27.76;64.61;98732.69;4917713;29;20201;-66
2022/08/14 09:13:52;;;;;;;11.43;10.60;;;;;;;27.80;65.12;98732.84;4917281;29;20662;-65
2022/08/14 09:16:21;;;;;;;10.47;9.43;;;;;;;27.84;65.41;98729.16;4916592;29;20260;-66
2022/08/14 09:18:48;;;;;;;9.93;9.33;;;;;;;27.71;65.44;98730.16;4917624;29;20201;-66
2022/08/14 09:21:17;;;;;;;10.07;9.23;;;;;;;27.90;63.99;98735.25;4917922;29;20224;-66
2022/08/14 09:23:44;;;;;;;10.00;9.30;;;;;;;27.86;64.80;98726.94;4917063;29;20661;-66
2022/08/14 09:26:11;;;;;;;10.03;9.43;;;;;;;27.75;65.49;98735.75;4917412;29;20201;-66
2022/08/14 09:28:37;;;;;;;9.23;8.63;;;;;;;27.56;65.86;98729.88;4916867;29;20670;-66
2022/08/14 09:31:05;;;;;;;10.43;9.40;;;;;;;27.58;65.64;98730.34;4917635;29;20201;-66
2022/08/14 09:33:58;;;;;;;9.93;9.33;;;;;;;27.13;66.62;98729.09;4917074;29;20198;-66
2022/08/14 09:36:37;;;;;;;9.73;8.93;;;;;;;26.98;67.34;98715.94;4917348;29;20194;-67
2022/08/14 09:39:12;;;;;;;11.83;10.73;;;;;;;26.88;69.88;98717.09;4917433;29;20197;-67
2022/08/14 09:41:51;;;;;;;13.93;12.00;;;;;;;26.46;70.88;98722.47;4916615;29;20277;-67
2022/08/14 09:44:33;;;;;;;12.37;11.43;;;;;;;26.19;72.64;98709.09;4916684;29;20190;-67
2022/08/14 09:46:59;;;;;;;13.57;12.57;;;;;;;26.17;74.13;98705.91;4916824;29;20193;-67
2022/08/14 09:49:34;;;;;;;14.77;13.37;;;;;;;25.82;75.93;98695.97;4916619;29;20645;-67
2022/08/14 09:52:09;;;;;;;14.47;13.37;;;;;;;25.88;75.13;98700.16;4916421;29;20200;-66
2022/08/14 09:54:38;;;;;;;11.57;10.77;;;;;;;25.86;74.80;98699.66;4917139;29;20189;-67
2022/08/14 09:57:05;;;;;;;12.90;11.70;;;;;;;25.83;75.95;98700.28;4916666;29;20202;-67
2022/08/14 09:59:44;;;;;;;14.20;12.90;;;;;;;25.73;75.89;98716.91;4917008;29;20205;-67
2022/08/14 10:02:23;;;;;;;12.77;11.87;;;;;;;25.62;77.06;98715.56;4917161;29;20581;-67
2022/08/14 10:05:01;;;;;;;13.93;12.73;;;;;;;25.29;78.06;98722.41;4916847;29;20200;-67
2022/08/14 10:07:34;;;;;;;13.10;11.87;;;;;;;25.06;81.28;98718.06;4916281;29;20193;-67
2022/08/14 10:10:02;;;;;;;17.50;15.63;;;;;;;25.12;80.39;98705.94;4916435;29;20228;-67
2022/08/14 10:12:44;;;;;;;17.40;14.60;;;;;;;24.98;82.01;98694.34;4916207;29;20672;-67
2022/08/14 10:15:19;;;;;;;16.33;14.73;;;;;;;25.02;82.15;98689.91;4917348;29;20228;-67
2022/08/14 10:17:47;;;;;;;16.63;14.90;;;;;;;25.19;82.28;98690.00;4916431;29;20288;-67
2022/08/14 10:20:15;;;;;;;17.43;15.63;;;;;;;25.06;81.86;98680.78;4916165;29;20209;-67
2022/08/14 10:22:43;;;;;;;15.67;14.17;;;;;;;25.07;83.79;98668.03;4916244;29;20235;-67
2022/08/14 10:25:12;;;;;;;19.27;17.57;;;;;;;25.32;81.16;98675.56;4916680;29;20205;-67
2022/08/14 10:27:40;;;;;;;20.27;18.13;;;;;;;25.38;82.01;98677.03;4916633;29;20198;-67
2022/08/14 10:30:14;;;;;;;19.33;17.37;;;;;;;25.32;82.51;98672.84;4916017;29;20662;-67
2022/08/14 10:32:44;;;;;;;13.90;12.70;;;;;;;25.32;80.19;98661.97;4916779;29;20189;-67
2022/08/14 10:35:12;;;;;;;17.03;15.43;;;;;;;25.59;79.21;98659.06;4916271;29;20201;-67
2022/08/14 10:37:40;;;;;;;18.73;16.83;;;;;;;25.47;81.60;98664.31;4915668;29;20285;-67
2022/08/14 10:40:10;;;;;;;17.93;16.20;;;;;;;25.56;81.20;98663.19;4915988;29;20247;-69
2022/08/14 10:42:38;;;;;;;16.93;15.57;;;;;;;25.49;81.57;98667.50;4916038;29;20224;-67
2022/08/14 10:45:19;;;;;;;17.07;15.50;;;;;;;25.20;82.14;98664.44;4916159;29;20201;-67
2022/08/14 10:47:46;;;;;;;16.20;14.90;;;;;;;25.10;83.79;98665.47;4916276;29;20575;-67
2022/08/14 10:50:15;;;;;;;16.37;14.80;;;;;;;25.15;84.28;98656.41;4916087;29;20261;-67
2022/08/14 10:52:45;;;;;;;15.57;14.23;;;;;;;24.92;84.89;98659.13;4916561;29;20663;-67
2022/08/14 10:55:15;;;;;;;14.13;13.00;;;;;;;24.56;84.13;98655.63;4915968;29;20204;-67
2022/08/14 10:57:51;;;;;;;14.90;13.60;;;;;;;24.52;85.81;98648.38;4915685;29;20652;-67
2022/08/14 11:00:20;;;;;;;13.10;12.10;;;;;;;24.52;85.13;98649.22;4915932;29;20196;-67
2022/08/14 11:02:58;;;;;;;16.03;14.47;;;;;;;24.32;85.33;98651.56;4914678;29;20330;-67
2022/08/14 11:05:26;;;;;;;15.70;14.37;;;;;;;24.12;86.00;98650.09;4916123;29;20260;-67
2022/08/14 11:07:59;;;;;;;14.40;13.30;;;;;;;24.00;86.25;98649.81;4915231;29;20230;-66
2022/08/14 11:10:40;;;;;;;14.77;13.47;;;;;;;24.08;86.77;98643.66;4916487;29;20201;-67
2022/08/14 11:13:08;;;;;;;15.37;13.93;;;;;;;24.08;86.95;98649.09;4916001;29;20266;-68
2022/08/14 11:15:35;;;;;;;14.80;13.53;;;;;;;23.87;88.22;98647.06;4915550;29;20203;-67
2022/08/14 11:18:04;;;;;;;14.30;13.20;;;;;;;23.81;88.79;98654.50;4915761;29;20198;-67
2022/08/14 11:20:31;;;;;;;14.63;13.33;;;;;;;23.92;88.81;98650.50;4915823;29;20285;-67
2022/08/14 11:23:00;;;;;;;15.07;13.77;;;;;;;24.01;88.88;98662.25;4915571;29;20234;-67
2022/08/14 11:25:30;;;;;;;16.37;14.40;;;;;;;23.94;88.16;98667.28;4915468;29;20628;-67
2022/08/14 11:27:59;;;;;;;13.97;12.67;;;;;;;23.63;89.04;98679.00;4916150;29;20286;-67
2022/08/14 11:30:28;;;;;;;15.30;14.00;;;;;;;23.44;89.30;98681.78;4915372;29;20199;-67
2022/08/14 11:32:55;;;;;;;14.87;13.47;;;;;;;23.20;92.34;98677.63;4916050;29;20206;-67
2022/08/14 11:35:25;;;;;;;14.07;13.00;;;;;;;23.18;92.81;98667.06;4915426;29;20262;-67
2022/08/14 11:37:53;;;;;;;15.30;14.20;;;;;;;23.39;92.63;98679.19;4915206;29;20198;-67
2022/08/14 11:40:22;;;;;;;14.37;13.37;;;;;;;23.37;92.87;98664.31;4917036;29;20198;-67
2022/08/14 11:42:52;;;;;;;15.53;14.20;;;;;;;23.36;93.26;98657.28;4918911;29;20235;-67
2022/08/14 11:45:19;;;;;;;16.13;14.83;;;;;;;23.46;93.55;98657.91;4904984;29;20206;-68